Laida — EAVE — position and weather

sailwx.info

Track history (hours):
 
Tides and Currents Weather Stations Pressure Air Temp Water Temp Dewpoint Dewpoint Depression Visibility Wind Speed Wind Dir Waves Ship Positions

Laida

Last reported at 2017-Jan-19 06:33 UTC. Time now 2017-Jan-19 06:44 UTC.
Position N 50°58' E 001°17'.

Length 100 m; draft 6.3 m.

Type: Cargo ship. MMSI: 224509000.

Date/timePositionNaut miles runAvg speedWind from/ knotsBaromVisibWave heightAir tempDewpointWater temp
2017-Jan-19 06:33N 50°58' E 001°17'1110.6
2017-Jan-19 05:33N 51°05' E 001°29'1010.1
2017-Jan-19 04:33N 51°14' E 001°38'1110.9
2017-Jan-19 03:33N 51°24' E 001°44'1211.6
2017-Jan-19 02:31N 51°34' E 001°55'1312.9
2017-Jan-19 01:31N 51°46' E 002°05'1513.0
2017-Jan-19 00:21N 52°00' E 002°10'1313.1
2017-Jan-18 23:22N 52°13' E 002°10'4311.1
2017-Jan-18 19:29N 52°55' E 001°58'910.1
2017-Jan-18 18:33N 53°00' E 001°45'10 9.8
2017-Jan-18 17:33N 53°06' E 001°32'10 9.8
2017-Jan-18 16:32N 53°12' E 001°19'8010.9
2017-Jan-18 09:13N 54°24' E 000°18'812.4
2017-Jan-18 08:33N 54°31' E 000°12'1212.4
2017-Jan-18 07:33N 54°43' E 000°03'16211.3
2017-Jan-17 17:10N 57°09' W 002°03'1 1.4
2017-Jan-17 16:29N 57°09' W 002°05'0 0.0
2017-Jan-17 15:31N 57°09' W 002°05'0 0.0
2017-Jan-17 14:29N 57°09' W 002°05'0 0.0
2017-Jan-17 13:25N 57°09' W 002°05'0 0.0
2017-Jan-17 12:23N 57°09' W 002°05'0 0.0
2017-Jan-17 11:29N 57°09' W 002°05'0 0.0
2017-Jan-17 10:29N 57°09' W 002°05'0 0.0
2017-Jan-17 09:31N 57°09' W 002°05'0 0.0
2017-Jan-17 08:31N 57°09' W 002°05'0 0.0
2017-Jan-17 07:25N 57°09' W 002°05'0 0.0
2017-Jan-17 06:29N 57°09' W 002°05'0 0.0
2017-Jan-17 05:29N 57°09' W 002°05'0 0.0
2017-Jan-17 04:31N 57°09' W 002°05'0 0.0
2017-Jan-17 03:29N 57°09' W 002°05'0 0.0
2017-Jan-17 02:31N 57°09' W 002°05'0 0.0
2017-Jan-17 01:25N 57°09' W 002°05'0 0.0
2017-Jan-17 00:29N 57°09' W 002°05'0 0.0
2017-Jan-16 23:31N 57°09' W 002°05'0 0.0
2017-Jan-16 22:31N 57°09' W 002°05'0 0.0
2017-Jan-16 21:31N 57°09' W 002°05'0 0.0
2017-Jan-16 20:31N 57°09' W 002°05'0 0.0
2017-Jan-16 19:31N 57°09' W 002°05'0 0.0
2017-Jan-16 18:31N 57°09' W 002°05'0 0.0
2017-Jan-16 17:31N 57°09' W 002°05'0 0.0
2017-Jan-16 16:31N 57°09' W 002°05'0 0.0
2017-Jan-16 15:29N 57°09' W 002°05'0 0.0
2017-Jan-16 14:31N 57°09' W 002°05'0 0.0
2017-Jan-16 13:31N 57°09' W 002°05'0 0.0
2017-Jan-16 12:31N 57°09' W 002°05'0 0.0
2017-Jan-16 11:29N 57°09' W 002°05'0 0.0
2017-Jan-16 10:31N 57°09' W 002°05'0 0.0
2017-Jan-16 09:31N 57°09' W 002°05'0 0.0
2017-Jan-16 08:29N 57°09' W 002°05'0 0.0
2017-Jan-16 07:31N 57°09' W 002°05'0 0.0
2017-Jan-16 06:31N 57°09' W 002°05'0 0.0
2017-Jan-16 05:29N 57°09' W 002°05'0 0.0
2017-Jan-16 04:29N 57°09' W 002°05'0 0.0
2017-Jan-16 03:31N 57°09' W 002°05'0 0.0
2017-Jan-16 02:29N 57°09' W 002°05'0 0.0
2017-Jan-16 01:29N 57°09' W 002°05'0 0.0
2017-Jan-16 00:31N 57°09' W 002°05'0 0.0
2017-Jan-15 23:31N 57°09' W 002°05'0 0.0
2017-Jan-15 22:29N 57°09' W 002°05'0 0.0
2017-Jan-15 21:29N 57°09' W 002°05'0 0.0
2017-Jan-15 20:31N 57°09' W 002°05'0 0.0
2017-Jan-15 19:31N 57°09' W 002°05'0 0.1
2017-Jan-15 18:33N 57°09' W 002°05'2 2.3
2017-Jan-15 17:33N 57°10' W 002°01'3 2.6
2017-Jan-15 16:33N 57°11' W 001°57'0 0.5
2017-Jan-15 15:33N 57°12' W 001°57'11 5.3
2017-Jan-15 13:33N 57°01' W 001°55'14210.6
2017-Jan-15 00:09N 54°51' W 000°12'610.5
2017-Jan-14 23:33N 54°45' W 000°08'1110.6
2017-Jan-14 22:33N 54°35' W 000°00'1010.4
2017-Jan-14 21:33N 54°26' E 000°07'10 9.6
2017-Jan-14 20:33N 54°17' E 000°14'9 8.6
2017-Jan-14 19:33N 54°09' E 000°20'65 8.1
2017-Jan-14 11:33N 53°14' E 001°17'9 8.7
2017-Jan-14 10:33N 53°08' E 001°28'7 7.0
2017-Jan-14 09:33N 53°04' E 001°37'6 6.5
2017-Jan-14 08:33N 52°60' E 001°45'6 6.1
2017-Jan-14 07:32N 52°56' E 001°54'83 8.3
2017-Jan-13 21:33N 51°33' E 001°57'7 6.6
2017-Jan-13 20:33N 51°28' E 001°52'6 6.4
2017-Jan-13 19:33N 51°22' E 001°46'6 6.3
2017-Jan-13 18:33N 51°17' E 001°42'7 6.9
2017-Jan-13 17:33N 51°10' E 001°43'9 8.9
2017-Jan-13 16:33N 51°02' E 001°36'6810.7
2017-Jan-13 10:13N 50°23' E 000°08'913.5
2017-Jan-13 09:33N 50°21' W 000°06'5413.5
2017-Jan-13 05:33N 50°06' W 001°27'1010.4
2017-Jan-13 04:33N 50°04' W 001°43'9 8.8
2017-Jan-13 03:33N 50°01' W 001°56'218 7.0
2017-Jan-11 20:22N 51°49' W 006°56'810.0
2017-Jan-11 19:33N 51°57' W 006°57'1010.3
2017-Jan-11 18:33N 52°07' W 006°58'9 9.2
2017-Jan-11 17:33N 52°17' W 007°00'1 1.1
2017-Jan-11 16:33N 52°16' W 007°02'0 0.0
2017-Jan-11 15:33N 52°16' W 007°02'0 0.0
2017-Jan-11 14:33N 52°16' W 007°02'0 0.0
2017-Jan-11 13:33N 52°16' W 007°02'0 0.0
2017-Jan-11 12:33N 52°16' W 007°02'0 0.0
2017-Jan-11 11:33N 52°16' W 007°02'0 0.0
2017-Jan-11 10:33N 52°16' W 007°02'0 0.0
2017-Jan-11 09:33N 52°16' W 007°02'0 0.0
2017-Jan-11 08:33N 52°16' W 007°02'0 0.0
2017-Jan-11 07:33N 52°16' W 007°02'0 0.0
2017-Jan-11 06:33N 52°16' W 007°02'0 0.0
2017-Jan-11 05:33N 52°16' W 007°02'0 0.0
2017-Jan-11 04:33N 52°16' W 007°02'0 0.0
2017-Jan-11 03:33N 52°16' W 007°02'0 0.0
2017-Jan-11 02:33N 52°16' W 007°02'0 0.0
2017-Jan-11 01:33N 52°16' W 007°02'0 0.0
2017-Jan-11 00:33N 52°16' W 007°02'0 0.0
2017-Jan-10 23:33N 52°16' W 007°02'0 0.0
2017-Jan-10 22:33N 52°16' W 007°02'0 0.0
2017-Jan-10 21:33N 52°16' W 007°02'0 0.0
2017-Jan-10 20:33N 52°16' W 007°02'0 0.0
2017-Jan-10 19:33N 52°16' W 007°02'0 0.0
2017-Jan-10 18:33N 52°16' W 007°02'0 0.0
2017-Jan-10 17:33N 52°16' W 007°02'0 0.0
2017-Jan-10 16:33N 52°16' W 007°02'0 0.0
2017-Jan-10 15:33N 52°16' W 007°02'0 0.0
2017-Jan-10 14:33N 52°16' W 007°02'0 0.0
2017-Jan-10 13:33N 52°16' W 007°02'0 0.0
2017-Jan-10 12:33N 52°16' W 007°02'0 0.0
2017-Jan-10 11:33N 52°16' W 007°02'0 0.0
2017-Jan-10 10:33N 52°16' W 007°02'0 0.0
2017-Jan-10 09:33N 52°16' W 007°02'0 0.0
2017-Jan-10 08:33N 52°16' W 007°02'0 0.0
2017-Jan-10 07:33N 52°16' W 007°02'0 0.0
2017-Jan-10 06:33N 52°16' W 007°02'0 0.0
2017-Jan-10 05:33N 52°16' W 007°02'0 0.0
2017-Jan-10 04:33N 52°16' W 007°02'0 0.0
2017-Jan-10 03:33N 52°16' W 007°02'0 0.0
2017-Jan-10 02:33N 52°16' W 007°02'0 0.0
2017-Jan-10 01:33N 52°16' W 007°02'0 0.0
2017-Jan-10 00:33N 52°16' W 007°02'0 0.0
2017-Jan-09 23:33N 52°16' W 007°02'5 5.4
2017-Jan-09 22:33N 52°12' W 006°56'3 3.0
2017-Jan-09 21:32N 52°09' W 006°58'0 0.1
2017-Jan-09 20:32N 52°09' W 006°58'0 0.0
2017-Jan-09 19:32N 52°09' W 006°58'0 0.2
2017-Jan-09 18:32N 52°09' W 006°58'0 0.1
2017-Jan-09 17:32N 52°09' W 006°58'0 0.0
2017-Jan-09 16:32N 52°09' W 006°58'0 0.0
2017-Jan-09 15:32N 52°09' W 006°58'0 0.0
2017-Jan-09 14:32N 52°09' W 006°58'0 0.0
2017-Jan-09 13:32N 52°09' W 006°58'0 0.0
2017-Jan-09 12:32N 52°09' W 006°58'0 0.0
2017-Jan-09 11:32N 52°09' W 006°58'0 0.0
2017-Jan-09 10:32N 52°09' W 006°58'0 0.0
2017-Jan-09 09:32N 52°09' W 006°58'0 0.0
2017-Jan-09 08:32N 52°09' W 006°58'0 0.0
2017-Jan-09 07:32N 52°09' W 006°58'  
Track history (hours):
 
Tides and Currents Weather Stations Pressure Air Temp Water Temp Dewpoint Dewpoint Depression Visibility Wind Speed Wind Dir Waves Ship Positions

Laida

Last reported at 2017-Jan-19 06:33 UTC. Time now 2017-Jan-19 06:44 UTC.
Position N 50°58' E 001°17'.

Length 100 m; draft 6.3 m.

Type: Cargo ship. MMSI: 224509000.

Date/timePositionNaut miles runAvg speedWind from/ knotsBaromVisibWave heightAir tempDewpointWater temp
2017-Jan-19 06:33N 50°58' E 001°17'1110.6
2017-Jan-19 05:33N 51°05' E 001°29'1010.1
2017-Jan-19 04:33N 51°14' E 001°38'1110.9
2017-Jan-19 03:33N 51°24' E 001°44'1211.6
2017-Jan-19 02:31N 51°34' E 001°55'1312.9
2017-Jan-19 01:31N 51°46' E 002°05'1513.0
2017-Jan-19 00:21N 52°00' E 002°10'1313.1
2017-Jan-18 23:22N 52°13' E 002°10'4311.1
2017-Jan-18 19:29N 52°55' E 001°58'910.1
2017-Jan-18 18:33N 53°00' E 001°45'10 9.8
2017-Jan-18 17:33N 53°06' E 001°32'10 9.8
2017-Jan-18 16:32N 53°12' E 001°19'8010.9
2017-Jan-18 09:13N 54°24' E 000°18'812.4
2017-Jan-18 08:33N 54°31' E 000°12'1212.4
2017-Jan-18 07:33N 54°43' E 000°03'16211.3
2017-Jan-17 17:10N 57°09' W 002°03'1 1.4
2017-Jan-17 16:29N 57°09' W 002°05'0 0.0
2017-Jan-17 15:31N 57°09' W 002°05'0 0.0
2017-Jan-17 14:29N 57°09' W 002°05'0 0.0
2017-Jan-17 13:25N 57°09' W 002°05'0 0.0
2017-Jan-17 12:23N 57°09' W 002°05'0 0.0
2017-Jan-17 11:29N 57°09' W 002°05'0 0.0
2017-Jan-17 10:29N 57°09' W 002°05'0 0.0
2017-Jan-17 09:31N 57°09' W 002°05'0 0.0
2017-Jan-17 08:31N 57°09' W 002°05'0 0.0
2017-Jan-17 07:25N 57°09' W 002°05'0 0.0
2017-Jan-17 06:29N 57°09' W 002°05'0 0.0
2017-Jan-17 05:29N 57°09' W 002°05'0 0.0
2017-Jan-17 04:31N 57°09' W 002°05'0 0.0
2017-Jan-17 03:29N 57°09' W 002°05'0 0.0
2017-Jan-17 02:31N 57°09' W 002°05'0 0.0
2017-Jan-17 01:25N 57°09' W 002°05'0 0.0
2017-Jan-17 00:29N 57°09' W 002°05'0 0.0
2017-Jan-16 23:31N 57°09' W 002°05'0 0.0
2017-Jan-16 22:31N 57°09' W 002°05'0 0.0
2017-Jan-16 21:31N 57°09' W 002°05'0 0.0
2017-Jan-16 20:31N 57°09' W 002°05'0 0.0
2017-Jan-16 19:31N 57°09' W 002°05'0 0.0
2017-Jan-16 18:31N 57°09' W 002°05'0 0.0
2017-Jan-16 17:31N 57°09' W 002°05'0 0.0
2017-Jan-16 16:31N 57°09' W 002°05'0 0.0
2017-Jan-16 15:29N 57°09' W 002°05'0 0.0
2017-Jan-16 14:31N 57°09' W 002°05'0 0.0
2017-Jan-16 13:31N 57°09' W 002°05'0 0.0
2017-Jan-16 12:31N 57°09' W 002°05'0 0.0
2017-Jan-16 11:29N 57°09' W 002°05'0 0.0
2017-Jan-16 10:31N 57°09' W 002°05'0 0.0
2017-Jan-16 09:31N 57°09' W 002°05'0 0.0
2017-Jan-16 08:29N 57°09' W 002°05'0 0.0
2017-Jan-16 07:31N 57°09' W 002°05'0 0.0
2017-Jan-16 06:31N 57°09' W 002°05'0 0.0
2017-Jan-16 05:29N 57°09' W 002°05'0 0.0
2017-Jan-16 04:29N 57°09' W 002°05'0 0.0
2017-Jan-16 03:31N 57°09' W 002°05'0 0.0
2017-Jan-16 02:29N 57°09' W 002°05'0 0.0
2017-Jan-16 01:29N 57°09' W 002°05'0 0.0
2017-Jan-16 00:31N 57°09' W 002°05'0 0.0
2017-Jan-15 23:31N 57°09' W 002°05'0 0.0
2017-Jan-15 22:29N 57°09' W 002°05'0 0.0
2017-Jan-15 21:29N 57°09' W 002°05'0 0.0
2017-Jan-15 20:31N 57°09' W 002°05'0 0.0
2017-Jan-15 19:31N 57°09' W 002°05'0 0.1
2017-Jan-15 18:33N 57°09' W 002°05'2 2.3
2017-Jan-15 17:33N 57°10' W 002°01'3 2.6
2017-Jan-15 16:33N 57°11' W 001°57'0 0.5
2017-Jan-15 15:33N 57°12' W 001°57'11 5.3
2017-Jan-15 13:33N 57°01' W 001°55'14210.6
2017-Jan-15 00:09N 54°51' W 000°12'610.5
2017-Jan-14 23:33N 54°45' W 000°08'1110.6
2017-Jan-14 22:33N 54°35' W 000°00'1010.4
2017-Jan-14 21:33N 54°26' E 000°07'10 9.6
2017-Jan-14 20:33N 54°17' E 000°14'9 8.6
2017-Jan-14 19:33N 54°09' E 000°20'65 8.1
2017-Jan-14 11:33N 53°14' E 001°17'9 8.7
2017-Jan-14 10:33N 53°08' E 001°28'7 7.0
2017-Jan-14 09:33N 53°04' E 001°37'6 6.5
2017-Jan-14 08:33N 52°60' E 001°45'6 6.1
2017-Jan-14 07:32N 52°56' E 001°54'83 8.3
2017-Jan-13 21:33N 51°33' E 001°57'7 6.6
2017-Jan-13 20:33N 51°28' E 001°52'6 6.4
2017-Jan-13 19:33N 51°22' E 001°46'6 6.3
2017-Jan-13 18:33N 51°17' E 001°42'7 6.9
2017-Jan-13 17:33N 51°10' E 001°43'9 8.9
2017-Jan-13 16:33N 51°02' E 001°36'6810.7
2017-Jan-13 10:13N 50°23' E 000°08'913.5
2017-Jan-13 09:33N 50°21' W 000°06'5413.5
2017-Jan-13 05:33N 50°06' W 001°27'1010.4
2017-Jan-13 04:33N 50°04' W 001°43'9 8.8
2017-Jan-13 03:33N 50°01' W 001°56'218 7.0
2017-Jan-11 20:22N 51°49' W 006°56'810.0
2017-Jan-11 19:33N 51°57' W 006°57'1010.3
2017-Jan-11 18:33N 52°07' W 006°58'9 9.2
2017-Jan-11 17:33N 52°17' W 007°00'1 1.1
2017-Jan-11 16:33N 52°16' W 007°02'0 0.0
2017-Jan-11 15:33N 52°16' W 007°02'0 0.0
2017-Jan-11 14:33N 52°16' W 007°02'0 0.0
2017-Jan-11 13:33N 52°16' W 007°02'0 0.0
2017-Jan-11 12:33N 52°16' W 007°02'0 0.0
2017-Jan-11 11:33N 52°16' W 007°02'0 0.0
2017-Jan-11 10:33N 52°16' W 007°02'0 0.0
2017-Jan-11 09:33N 52°16' W 007°02'0 0.0
2017-Jan-11 08:33N 52°16' W 007°02'0 0.0
2017-Jan-11 07:33N 52°16' W 007°02'0 0.0
2017-Jan-11 06:33N 52°16' W 007°02'0 0.0
2017-Jan-11 05:33N 52°16' W 007°02'0 0.0
2017-Jan-11 04:33N 52°16' W 007°02'0 0.0
2017-Jan-11 03:33N 52°16' W 007°02'0 0.0
2017-Jan-11 02:33N 52°16' W 007°02'0 0.0
2017-Jan-11 01:33N 52°16' W 007°02'0 0.0
2017-Jan-11 00:33N 52°16' W 007°02'0 0.0
2017-Jan-10 23:33N 52°16' W 007°02'0 0.0
2017-Jan-10 22:33N 52°16' W 007°02'0 0.0
2017-Jan-10 21:33N 52°16' W 007°02'0 0.0
2017-Jan-10 20:33N 52°16' W 007°02'0 0.0
2017-Jan-10 19:33N 52°16' W 007°02'0 0.0
2017-Jan-10 18:33N 52°16' W 007°02'0 0.0
2017-Jan-10 17:33N 52°16' W 007°02'0 0.0
2017-Jan-10 16:33N 52°16' W 007°02'0 0.0
2017-Jan-10 15:33N 52°16' W 007°02'0 0.0
2017-Jan-10 14:33N 52°16' W 007°02'0 0.0
2017-Jan-10 13:33N 52°16' W 007°02'0 0.0
2017-Jan-10 12:33N 52°16' W 007°02'0 0.0
2017-Jan-10 11:33N 52°16' W 007°02'0 0.0
2017-Jan-10 10:33N 52°16' W 007°02'0 0.0
2017-Jan-10 09:33N 52°16' W 007°02'0 0.0
2017-Jan-10 08:33N 52°16' W 007°02'0 0.0
2017-Jan-10 07:33N 52°16' W 007°02'0 0.0
2017-Jan-10 06:33N 52°16' W 007°02'0 0.0
2017-Jan-10 05:33N 52°16' W 007°02'0 0.0
2017-Jan-10 04:33N 52°16' W 007°02'0 0.0
2017-Jan-10 03:33N 52°16' W 007°02'0 0.0
2017-Jan-10 02:33N 52°16' W 007°02'0 0.0
2017-Jan-10 01:33N 52°16' W 007°02'0 0.0
2017-Jan-10 00:33N 52°16' W 007°02'0 0.0
2017-Jan-09 23:33N 52°16' W 007°02'5 5.4
2017-Jan-09 22:33N 52°12' W 006°56'3 3.0
2017-Jan-09 21:32N 52°09' W 006°58'0 0.1
2017-Jan-09 20:32N 52°09' W 006°58'0 0.0
2017-Jan-09 19:32N 52°09' W 006°58'0 0.2
2017-Jan-09 18:32N 52°09' W 006°58'0 0.1
2017-Jan-09 17:32N 52°09' W 006°58'0 0.0
2017-Jan-09 16:32N 52°09' W 006°58'0 0.0
2017-Jan-09 15:32N 52°09' W 006°58'0 0.0
2017-Jan-09 14:32N 52°09' W 006°58'0 0.0
2017-Jan-09 13:32N 52°09' W 006°58'0 0.0
2017-Jan-09 12:32N 52°09' W 006°58'0 0.0
2017-Jan-09 11:32N 52°09' W 006°58'0 0.0
2017-Jan-09 10:32N 52°09' W 006°58'0 0.0
2017-Jan-09 09:32N 52°09' W 006°58'0 0.0
2017-Jan-09 08:32N 52°09' W 006°58'0 0.0
2017-Jan-09 07:32N 52°09' W 006°58'  

Dump ship's entire track history